หน้าหลัก
METAR-TAF:

METAR-TAF

ท่าอากาศยาน :

Oban, สกอตแลนด์

ละติจูด: 56-27-49N, ลองจิจูด: 5-24-00W, ความสูง: 7 ม.

การสังเกตสภาพอากาศปัจจุบัน

รายงานได้ทำขึ้นเมื่อ 12 ชั่วโมงและ 23 นาทีที่แล้ว ณ เวลา 15:20 UTC
ลม 10 นอตจากตะวันตก
อุณหภูมิ 13°C
ความชื้น 54%
ความกดอากาศ 1018 hPa
ทัศนวิสัย 10 กม. หรือมากกว่า
มีเมฆน้อยที่ความสูง 4500 ฟุต

METAR: EGEO 121520Z 26010KT 9999 FEW045 13/04 Q1018

เวลา: 04:43 (03:43 UTC)

การพยากรณ์

รายงานได้ทำขึ้นเมื่อ 13 ชั่วโมงและ 43 นาทีที่แล้ว ณ เวลา 14:00 UTC
การพยากรณ์มีผลตั้งแต่วันที่ 12 ณ เวลา 15 UTC จนถึงวันที่ 12 ณ เวลา 17 UTC
ลม 9 นอตจากตะวันตก
ทัศนวิสัย 10 กม. หรือมากกว่า
มีเมฆกระจายเป็นบางส่วนที่ความสูง 4000 ฟุต

TAF: EGEO 121400Z 1215/1217 26009KT 9999 SCT040

สังเกตการณ์สภาพอากาศและพยากรณ์อากาศของสนามบินมากกว่า 4000 แห่ง (รายงาน METAR และ TAF).

สถานีที่ดูได้จะแสดงไว้ด้วยจุดสีเหลืองและสีแดงบนแผนที่.

เลื่อนเมาส์ไปเหนือจุดเพื่อดูชื่อสถานี.

แล้วคลิกเพื่อดูสังเกตการณ์และการพยากรณ์สภาพอากาศ.

ในการเปลี่ยนแผนที่: คลิกที่ปุ่มสีเขียวที่มีกากบาทสีดำเพื่อซูมเข้า; ที่ปุ่มสีเขียวที่มีขีดเพื่อซูมออก; หรือที่ลูกศรสีเขียวเพื่อไปยังแผนที่ที่อยู่ติดกัน.


METAR-TAF: